sensor_id;sensor_type;location;lat;lon;timestamp;pressure;altitude;pressure_sealevel;temperature;humidity
12360;BME280;6244;51.460;7.090;2023-04-22T00:00:30;99952.44;;;9.36;82.30
12360;BME280;6244;51.460;7.090;2023-04-22T00:05:27;99938.16;;;9.71;81.49
12360;BME280;6244;51.460;7.090;2023-04-22T00:10:25;99931.59;;;9.79;82.44
12360;BME280;6244;51.460;7.090;2023-04-22T00:15:22;99939.94;;;9.71;81.75
12360;BME280;6244;51.460;7.090;2023-04-22T00:20:20;99927.59;;;9.73;81.01
12360;BME280;6244;51.460;7.090;2023-04-22T00:25:16;99922.91;;;9.78;81.20
12360;BME280;6244;51.460;7.090;2023-04-22T00:30:14;99925.53;;;9.78;80.72
12360;BME280;6244;51.460;7.090;2023-04-22T00:35:11;99914.09;;;9.65;81.70
12360;BME280;6244;51.460;7.090;2023-04-22T00:40:08;99914.25;;;9.48;82.49
12360;BME280;6244;51.460;7.090;2023-04-22T00:45:09;99919.28;;;9.51;83.43
12360;BME280;6244;51.460;7.090;2023-04-22T00:50:08;99903.69;;;9.63;83.06
12360;BME280;6244;51.460;7.090;2023-04-22T00:55:05;99913.94;;;9.82;82.09
12360;BME280;6244;51.460;7.090;2023-04-22T01:00:03;99910.00;;;9.89;81.96
12360;BME280;6244;51.460;7.090;2023-04-22T01:05:01;99918.91;;;9.43;83.77
12360;BME280;6244;51.460;7.090;2023-04-22T01:09:59;99923.63;;;9.66;82.64
12360;BME280;6244;51.460;7.090;2023-04-22T01:14:56;99914.88;;;9.81;82.03
12360;BME280;6244;51.460;7.090;2023-04-22T01:19:52;99914.78;;;9.83;82.33
12360;BME280;6244;51.460;7.090;2023-04-22T01:24:51;99907.09;;;9.35;83.01
12360;BME280;6244;51.460;7.090;2023-04-22T01:29:47;99916.97;;;9.60;83.08
12360;BME280;6244;51.460;7.090;2023-04-22T01:34:44;99906.06;;;9.68;82.54
12360;BME280;6244;51.460;7.090;2023-04-22T01:39:40;99912.88;;;9.56;82.73
12360;BME280;6244;51.460;7.090;2023-04-22T01:44:38;99916.09;;;9.46;82.66
12360;BME280;6244;51.460;7.090;2023-04-22T01:49:35;99909.47;;;9.54;83.43
12360;BME280;6244;51.460;7.090;2023-04-22T01:54:31;99906.28;;;9.49;83.48
12360;BME280;6244;51.460;7.090;2023-04-22T01:59:28;99911.97;;;9.41;82.98
12360;BME280;6244;51.460;7.090;2023-04-22T02:04:26;99904.78;;;9.45;83.37
12360;BME280;6244;51.460;7.090;2023-04-22T02:09:23;99901.63;;;9.24;83.86
12360;BME280;6244;51.460;7.090;2023-04-22T02:14:19;99905.09;;;9.25;83.90
12360;BME280;6244;51.460;7.090;2023-04-22T02:19:16;99901.75;;;9.37;83.67
12360;BME280;6244;51.460;7.090;2023-04-22T02:24:13;99906.38;;;9.18;83.65
12360;BME280;6244;51.460;7.090;2023-04-22T02:29:10;99910.75;;;9.17;83.31
12360;BME280;6244;51.460;7.090;2023-04-22T02:34:07;99898.84;;;9.27;83.63
12360;BME280;6244;51.460;7.090;2023-04-22T02:39:04;99891.78;;;9.44;83.72
12360;BME280;6244;51.460;7.090;2023-04-22T02:44:02;99890.22;;;9.55;82.75
12360;BME280;6244;51.460;7.090;2023-04-22T02:48:58;99887.88;;;9.51;82.58
12360;BME280;6244;51.460;7.090;2023-04-22T02:53:55;99888.72;;;9.51;82.80
12360;BME280;6244;51.460;7.090;2023-04-22T02:58:51;99876.19;;;9.56;82.42
12360;BME280;6244;51.460;7.090;2023-04-22T03:03:49;99867.31;;;9.59;83.25
12360;BME280;6244;51.460;7.090;2023-04-22T03:08:46;99871.53;;;9.76;82.83
12360;BME280;6244;51.460;7.090;2023-04-22T03:13:42;99860.97;;;9.77;82.72
12360;BME280;6244;51.460;7.090;2023-04-22T03:18:39;99857.13;;;9.68;82.83
12360;BME280;6244;51.460;7.090;2023-04-22T03:23:37;99860.03;;;9.78;82.70
12360;BME280;6244;51.460;7.090;2023-04-22T03:28:33;99852.16;;;9.78;82.79
12360;BME280;6244;51.460;7.090;2023-04-22T03:33:30;99860.22;;;9.89;82.30
12360;BME280;6244;51.460;7.090;2023-04-22T03:38:26;99852.53;;;9.72;82.58
12360;BME280;6244;51.460;7.090;2023-04-22T03:43:24;99854.31;;;9.71;82.87
12360;BME280;6244;51.460;7.090;2023-04-22T03:48:20;99849.34;;;9.67;82.91
12360;BME280;6244;51.460;7.090;2023-04-22T03:53:17;99834.41;;;9.69;83.04
12360;BME280;6244;51.460;7.090;2023-04-22T03:58:13;99841.56;;;9.65;82.96
12360;BME280;6244;51.460;7.090;2023-04-22T04:03:11;99827.09;;;9.60;82.61
12360;BME280;6244;51.460;7.090;2023-04-22T04:08:08;99835.06;;;9.28;83.49
12360;BME280;6244;51.460;7.090;2023-04-22T04:13:04;99830.63;;;9.45;83.10
12360;BME280;6244;51.460;7.090;2023-04-22T04:18:01;99818.47;;;9.44;83.31
12360;BME280;6244;51.460;7.090;2023-04-22T04:22:59;99829.69;;;9.46;83.03
12360;BME280;6244;51.460;7.090;2023-04-22T04:27:56;99835.19;;;9.41;83.43
12360;BME280;6244;51.460;7.090;2023-04-22T04:32:53;99808.56;;;9.49;83.55
12360;BME280;6244;51.460;7.090;2023-04-22T04:37:49;99801.00;;;9.58;83.24
12360;BME280;6244;51.460;7.090;2023-04-22T04:42:49;99810.91;;;9.67;82.88
12360;BME280;6244;51.460;7.090;2023-04-22T04:47:48;99810.53;;;9.59;83.20
12360;BME280;6244;51.460;7.090;2023-04-22T04:52:45;99816.13;;;9.53;83.63
12360;BME280;6244;51.460;7.090;2023-04-22T04:57:43;99811.38;;;9.46;83.65
12360;BME280;6244;51.460;7.090;2023-04-22T05:02:41;99808.34;;;9.37;84.29
12360;BME280;6244;51.460;7.090;2023-04-22T05:07:37;99807.31;;;9.40;84.42
12360;BME280;6244;51.460;7.090;2023-04-22T05:12:34;99805.84;;;9.64;84.67
12360;BME280;6244;51.460;7.090;2023-04-22T05:17:30;99805.47;;;9.85;83.38
12360;BME280;6244;51.460;7.090;2023-04-22T05:22:29;99791.63;;;9.97;83.24
12360;BME280;6244;51.460;7.090;2023-04-22T05:27:25;99795.34;;;10.07;83.26
12360;BME280;6244;51.460;7.090;2023-04-22T05:32:22;99797.56;;;10.13;82.95
12360;BME280;6244;51.460;7.090;2023-04-22T05:37:19;99796.09;;;10.23;80.67
12360;BME280;6244;51.460;7.090;2023-04-22T05:42:16;99790.91;;;10.36;79.10
12360;BME280;6244;51.460;7.090;2023-04-22T05:47:13;99802.50;;;10.46;79.33
12360;BME280;6244;51.460;7.090;2023-04-22T05:52:10;99790.47;;;10.56;77.55
12360;BME280;6244;51.460;7.090;2023-04-22T05:57:06;99801.19;;;10.66;78.74
12360;BME280;6244;51.460;7.090;2023-04-22T06:02:04;99798.72;;;10.77;76.38
12360;BME280;6244;51.460;7.090;2023-04-22T06:07:01;99800.84;;;10.85;77.01
12360;BME280;6244;51.460;7.090;2023-04-22T06:11:57;99800.44;;;10.91;76.99
12360;BME280;6244;51.460;7.090;2023-04-22T06:16:54;99804.44;;;10.97;78.16
12360;BME280;6244;51.460;7.090;2023-04-22T06:21:52;99805.22;;;11.11;77.88
12360;BME280;6244;51.460;7.090;2023-04-22T06:26:48;99802.81;;;11.21;78.80
12360;BME280;6244;51.460;7.090;2023-04-22T06:31:45;99803.88;;;11.31;77.53
12360;BME280;6244;51.460;7.090;2023-04-22T06:36:42;99804.06;;;11.41;77.41
12360;BME280;6244;51.460;7.090;2023-04-22T06:41:40;99791.28;;;11.49;77.13
12360;BME280;6244;51.460;7.090;2023-04-22T06:46:38;99789.19;;;11.54;76.98
12360;BME280;6244;51.460;7.090;2023-04-22T06:51:35;99782.75;;;11.71;74.42
12360;BME280;6244;51.460;7.090;2023-04-22T06:56:31;99784.44;;;11.97;76.86
12360;BME280;6244;51.460;7.090;2023-04-22T07:01:29;99780.88;;;12.22;71.31
12360;BME280;6244;51.460;7.090;2023-04-22T07:06:26;99773.50;;;12.51;72.52
12360;BME280;6244;51.460;7.090;2023-04-22T07:11:23;99780.97;;;12.81;68.78
12360;BME280;6244;51.460;7.090;2023-04-22T07:16:20;99781.41;;;13.10;67.40
12360;BME280;6244;51.460;7.090;2023-04-22T07:21:18;99777.44;;;13.51;64.20
12360;BME280;6244;51.460;7.090;2023-04-22T07:26:15;99770.13;;;13.88;62.52
12360;BME280;6244;51.460;7.090;2023-04-22T07:31:11;99771.06;;;14.21;60.86
12360;BME280;6244;51.460;7.090;2023-04-22T07:36:09;99765.25;;;14.49;58.45
12360;BME280;6244;51.460;7.090;2023-04-22T07:41:07;99766.72;;;14.74;58.00
12360;BME280;6244;51.460;7.090;2023-04-22T07:46:04;99767.53;;;15.27;56.55
12360;BME280;6244;51.460;7.090;2023-04-22T07:51:00;99752.75;;;15.46;55.27
12360;BME280;6244;51.460;7.090;2023-04-22T07:55:57;99759.56;;;15.48;53.60
12360;BME280;6244;51.460;7.090;2023-04-22T08:00:55;99752.53;;;15.28;54.92
12360;BME280;6244;51.460;7.090;2023-04-22T08:05:51;99741.88;;;15.70;54.26
12360;BME280;6244;51.460;7.090;2023-04-22T08:10:48;99733.41;;;16.35;52.48
12360;BME280;6244;51.460;7.090;2023-04-22T08:15:44;99735.97;;;17.05;49.73
12360;BME280;6244;51.460;7.090;2023-04-22T08:20:42;99733.81;;;17.37;47.45
12360;BME280;6244;51.460;7.090;2023-04-22T08:25:39;99723.75;;;17.78;46.96
12360;BME280;6244;51.460;7.090;2023-04-22T08:30:35;99728.81;;;17.99;46.62
12360;BME280;6244;51.460;7.090;2023-04-22T08:35:33;99725.75;;;18.39;44.31
12360;BME280;6244;51.460;7.090;2023-04-22T08:40:33;99724.91;;;18.56;45.33
12360;BME280;6244;51.460;7.090;2023-04-22T08:45:30;99723.09;;;18.39;44.16
12360;BME280;6244;51.460;7.090;2023-04-22T08:50:27;99717.50;;;18.77;42.59
12360;BME280;6244;51.460;7.090;2023-04-22T08:55:24;99706.59;;;19.06;42.24
12360;BME280;6244;51.460;7.090;2023-04-22T09:00:23;99700.25;;;19.33;41.76
12360;BME280;6244;51.460;7.090;2023-04-22T09:05:21;99695.09;;;19.58;40.81
12360;BME280;6244;51.460;7.090;2023-04-22T09:10:19;99695.09;;;18.44;42.71
12360;BME280;6244;51.460;7.090;2023-04-22T09:15:15;99694.63;;;18.85;43.26
12360;BME280;6244;51.460;7.090;2023-04-22T09:20:13;99686.56;;;20.55;41.89
12360;BME280;6244;51.460;7.090;2023-04-22T09:25:16;99677.88;;;21.26;37.98
12360;BME280;6244;51.460;7.090;2023-04-22T09:30:13;99681.38;;;21.74;36.84
12360;BME280;6244;51.460;7.090;2023-04-22T09:35:09;99682.59;;;20.59;38.69
12360;BME280;6244;51.460;7.090;2023-04-22T09:40:08;99681.50;;;20.28;39.88
12360;BME280;6244;51.460;7.090;2023-04-22T09:45:05;99669.81;;;20.04;42.61
12360;BME280;6244;51.460;7.090;2023-04-22T09:50:02;99667.66;;;20.00;41.59
12360;BME280;6244;51.460;7.090;2023-04-22T09:54:59;99657.81;;;19.92;41.13
12360;BME280;6244;51.460;7.090;2023-04-22T09:59:58;99654.97;;;21.40;37.02
12360;BME280;6244;51.460;7.090;2023-04-22T10:04:55;99662.03;;;21.72;36.11
12360;BME280;6244;51.460;7.090;2023-04-22T10:09:52;99652.63;;;22.15;35.78
12360;BME280;6244;51.460;7.090;2023-04-22T10:14:49;99657.41;;;20.86;37.24
12360;BME280;6244;51.460;7.090;2023-04-22T10:19:47;99653.25;;;20.75;38.98
12360;BME280;6244;51.460;7.090;2023-04-22T10:24:46;99648.06;;;21.54;36.38
12360;BME280;6244;51.460;7.090;2023-04-22T10:29:44;99639.94;;;22.55;36.40
12360;BME280;6244;51.460;7.090;2023-04-22T10:34:40;99638.34;;;23.36;32.89
12360;BME280;6244;51.460;7.090;2023-04-22T10:39:40;99629.38;;;24.30;32.54
12360;BME280;6244;51.460;7.090;2023-04-22T10:44:48;99630.06;;;24.39;31.12
12360;BME280;6244;51.460;7.090;2023-04-22T10:49:45;99627.56;;;23.80;32.05
12360;BME280;6244;51.460;7.090;2023-04-22T10:54:59;99627.34;;;23.60;33.23
12360;BME280;6244;51.460;7.090;2023-04-22T10:59:57;99632.81;;;23.88;32.23
12360;BME280;6244;51.460;7.090;2023-04-22T11:05:19;99643.50;;;22.70;33.44
12360;BME280;6244;51.460;7.090;2023-04-22T11:10:41;99631.97;;;23.37;33.75
12360;BME280;6244;51.460;7.090;2023-04-22T11:15:39;99629.84;;;23.62;32.85
12360;BME280;6244;51.460;7.090;2023-04-22T11:20:35;99632.75;;;23.82;32.48
12360;BME280;6244;51.460;7.090;2023-04-22T11:25:32;99642.88;;;22.45;35.53
12360;BME280;6244;51.460;7.090;2023-04-22T11:30:30;99647.75;;;22.42;34.63
12360;BME280;6244;51.460;7.090;2023-04-22T11:35:29;99648.00;;;22.93;35.42
12360;BME280;6244;51.460;7.090;2023-04-22T11:40:27;99643.31;;;24.05;32.35
12360;BME280;6244;51.460;7.090;2023-04-22T11:45:24;99664.41;;;23.93;32.99
12360;BME280;6244;51.460;7.090;2023-04-22T11:50:24;99655.31;;;22.76;34.32
12360;BME280;6244;51.460;7.090;2023-04-22T11:55:22;99647.91;;;22.17;36.35
12360;BME280;6244;51.460;7.090;2023-04-22T12:00:22;99638.94;;;21.40;38.34
12360;BME280;6244;51.460;7.090;2023-04-22T12:05:19;99638.34;;;21.05;38.48
12360;BME280;6244;51.460;7.090;2023-04-22T12:10:17;99628.31;;;21.16;38.18
12360;BME280;6244;51.460;7.090;2023-04-22T12:15:14;99634.97;;;21.20;39.10
12360;BME280;6244;51.460;7.090;2023-04-22T12:20:11;99628.16;;;21.25;38.60
12360;BME280;6244;51.460;7.090;2023-04-22T12:25:08;99620.16;;;21.33;38.40
12360;BME280;6244;51.460;7.090;2023-04-22T12:30:07;99641.84;;;21.14;37.74
12360;BME280;6244;51.460;7.090;2023-04-22T12:35:04;99624.94;;;20.74;38.81
12360;BME280;6244;51.460;7.090;2023-04-22T12:40:03;99641.91;;;20.65;39.22
12360;BME280;6244;51.460;7.090;2023-04-22T12:45:01;99639.00;;;21.24;38.60
12360;BME280;6244;51.460;7.090;2023-04-22T12:49:59;99633.94;;;21.76;38.00
12360;BME280;6244;51.460;7.090;2023-04-22T12:55:00;99621.56;;;21.52;38.84
12360;BME280;6244;51.460;7.090;2023-04-22T12:59:57;99627.47;;;21.31;39.57
12360;BME280;6244;51.460;7.090;2023-04-22T13:04:53;99630.66;;;21.66;39.18
12360;BME280;6244;51.460;7.090;2023-04-22T13:09:52;99623.97;;;21.23;39.62
12360;BME280;6244;51.460;7.090;2023-04-22T13:14:49;99625.38;;;21.02;40.52
12360;BME280;6244;51.460;7.090;2023-04-22T13:19:46;99624.06;;;20.98;41.22
12360;BME280;6244;51.460;7.090;2023-04-22T13:24:44;99618.63;;;21.31;40.78
12360;BME280;6244;51.460;7.090;2023-04-22T13:29:43;99662.69;;;21.27;39.62
12360;BME280;6244;51.460;7.090;2023-04-22T13:34:40;99613.78;;;20.63;41.70
12360;BME280;6244;51.460;7.090;2023-04-22T13:39:37;99607.44;;;20.64;42.02
12360;BME280;6244;51.460;7.090;2023-04-22T13:44:34;99618.59;;;20.43;42.81
12360;BME280;6244;51.460;7.090;2023-04-22T13:49:31;99627.13;;;20.46;42.66
12360;BME280;6244;51.460;7.090;2023-04-22T13:54:28;99635.88;;;19.98;44.04
12360;BME280;6244;51.460;7.090;2023-04-22T13:59:25;99630.50;;;19.90;43.87
12360;BME280;6244;51.460;7.090;2023-04-22T14:04:22;99620.34;;;19.85;44.50
12360;BME280;6244;51.460;7.090;2023-04-22T14:09:19;99641.16;;;19.48;45.79
12360;BME280;6244;51.460;7.090;2023-04-22T14:14:16;99652.38;;;18.99;48.46
12360;BME280;6244;51.460;7.090;2023-04-22T14:19:13;99667.94;;;18.51;50.76
12360;BME280;6244;51.460;7.090;2023-04-22T14:24:09;99666.63;;;18.19;49.95
12360;BME280;6244;51.460;7.090;2023-04-22T14:29:07;99668.31;;;18.02;53.97
12360;BME280;6244;51.460;7.090;2023-04-22T14:34:04;99674.34;;;17.67;55.11
12360;BME280;6244;51.460;7.090;2023-04-22T14:39:00;99687.50;;;17.59;55.70
12360;BME280;6244;51.460;7.090;2023-04-22T14:43:57;99681.41;;;17.49;55.98
12360;BME280;6244;51.460;7.090;2023-04-22T14:48:55;99679.19;;;17.44;56.29
12360;BME280;6244;51.460;7.090;2023-04-22T14:53:52;99691.13;;;17.58;57.25
12360;BME280;6244;51.460;7.090;2023-04-22T14:58:48;99681.75;;;17.64;57.20
12360;BME280;6244;51.460;7.090;2023-04-22T15:03:45;99681.66;;;17.55;57.31
12360;BME280;6244;51.460;7.090;2023-04-22T15:08:44;99682.34;;;17.57;56.37
12360;BME280;6244;51.460;7.090;2023-04-22T15:13:40;99675.97;;;17.50;56.94
12360;BME280;6244;51.460;7.090;2023-04-22T15:18:37;99677.91;;;17.48;56.47
12360;BME280;6244;51.460;7.090;2023-04-22T15:23:34;99670.53;;;17.42;56.75
12360;BME280;6244;51.460;7.090;2023-04-22T15:28:32;99676.00;;;17.41;56.68
12360;BME280;6244;51.460;7.090;2023-04-22T15:33:31;99670.16;;;17.37;55.97
12360;BME280;6244;51.460;7.090;2023-04-22T15:38:27;99673.59;;;17.47;55.97
12360;BME280;6244;51.460;7.090;2023-04-22T15:43:26;99673.84;;;17.54;56.26
12360;BME280;6244;51.460;7.090;2023-04-22T15:48:24;99667.63;;;17.73;55.92
12360;BME280;6244;51.460;7.090;2023-04-22T15:53:20;99669.91;;;17.58;55.89
12360;BME280;6244;51.460;7.090;2023-04-22T15:58:17;99662.06;;;17.66;56.05
12360;BME280;6244;51.460;7.090;2023-04-22T16:03:14;99666.53;;;17.66;55.83
12360;BME280;6244;51.460;7.090;2023-04-22T16:08:12;99666.56;;;17.56;56.59
12360;BME280;6244;51.460;7.090;2023-04-22T16:13:09;99664.06;;;17.54;55.80
12360;BME280;6244;51.460;7.090;2023-04-22T16:18:06;99668.03;;;17.41;56.98
12360;BME280;6244;51.460;7.090;2023-04-22T16:23:02;99668.16;;;17.12;56.39
12360;BME280;6244;51.460;7.090;2023-04-22T16:28:00;99667.03;;;17.05;57.75
12360;BME280;6244;51.460;7.090;2023-04-22T16:32:57;99680.06;;;16.69;60.55
12360;BME280;6244;51.460;7.090;2023-04-22T16:37:54;99679.63;;;16.15;64.06
12360;BME280;6244;51.460;7.090;2023-04-22T16:42:50;99682.09;;;15.88;66.08
12360;BME280;6244;51.460;7.090;2023-04-22T16:47:48;99676.19;;;15.75;67.68
12360;BME280;6244;51.460;7.090;2023-04-22T16:52:44;99691.59;;;15.60;68.58
12360;BME280;6244;51.460;7.090;2023-04-22T16:57:41;99697.34;;;15.44;69.71
12360;BME280;6244;51.460;7.090;2023-04-22T17:02:41;99704.06;;;15.18;72.10
12360;BME280;6244;51.460;7.090;2023-04-22T17:07:39;99720.03;;;14.95;75.13
12360;BME280;6244;51.460;7.090;2023-04-22T17:12:36;99720.09;;;14.63;78.33
12360;BME280;6244;51.460;7.090;2023-04-22T17:17:35;99720.59;;;14.14;83.00
12360;BME280;6244;51.460;7.090;2023-04-22T17:22:31;99717.63;;;13.85;84.25
12360;BME280;6244;51.460;7.090;2023-04-22T17:27:29;99726.06;;;13.79;86.39
12360;BME280;6244;51.460;7.090;2023-04-22T17:32:29;99716.94;;;13.49;87.62
12360;BME280;6244;51.460;7.090;2023-04-22T17:37:25;99722.94;;;13.40;89.13
12360;BME280;6244;51.460;7.090;2023-04-22T17:42:25;99723.53;;;13.33;90.25
12360;BME280;6244;51.460;7.090;2023-04-22T17:47:25;99718.59;;;13.39;89.42
12360;BME280;6244;51.460;7.090;2023-04-22T17:52:29;99723.16;;;13.37;90.12
12360;BME280;6244;51.460;7.090;2023-04-22T17:57:26;99730.44;;;13.22;90.95
12360;BME280;6244;51.460;7.090;2023-04-22T18:02:27;99731.88;;;13.27;91.59
12360;BME280;6244;51.460;7.090;2023-04-22T18:07:24;99730.84;;;13.29;91.64
12360;BME280;6244;51.460;7.090;2023-04-22T18:12:25;99741.13;;;13.32;91.81
12360;BME280;6244;51.460;7.090;2023-04-22T18:17:23;99738.63;;;13.31;91.90
12360;BME280;6244;51.460;7.090;2023-04-22T18:22:24;99742.81;;;13.33;92.03
12360;BME280;6244;51.460;7.090;2023-04-22T18:27:22;99746.03;;;13.37;91.95
12360;BME280;6244;51.460;7.090;2023-04-22T18:32:19;99749.16;;;13.31;92.01
12360;BME280;6244;51.460;7.090;2023-04-22T18:37:15;99749.72;;;13.23;92.54
12360;BME280;6244;51.460;7.090;2023-04-22T18:42:13;99752.63;;;13.31;92.62
12360;BME280;6244;51.460;7.090;2023-04-22T18:47:10;99758.47;;;13.23;92.49
12360;BME280;6244;51.460;7.090;2023-04-22T18:52:06;99757.19;;;13.29;92.75
12360;BME280;6244;51.460;7.090;2023-04-22T18:57:03;99755.13;;;13.21;92.88
12360;BME280;6244;51.460;7.090;2023-04-22T19:02:01;99754.66;;;13.28;92.54
12360;BME280;6244;51.460;7.090;2023-04-22T19:06:57;99758.03;;;13.30;92.79
12360;BME280;6244;51.460;7.090;2023-04-22T19:11:54;99758.34;;;13.25;92.91
12360;BME280;6244;51.460;7.090;2023-04-22T19:16:50;99764.59;;;13.35;92.94
12360;BME280;6244;51.460;7.090;2023-04-22T19:21:48;99769.41;;;13.41;92.83
12360;BME280;6244;51.460;7.090;2023-04-22T19:26:45;99761.63;;;13.29;92.44
12360;BME280;6244;51.460;7.090;2023-04-22T19:31:42;99762.94;;;13.34;92.48
12360;BME280;6244;51.460;7.090;2023-04-22T19:36:39;99757.44;;;13.48;92.80
12360;BME280;6244;51.460;7.090;2023-04-22T19:41:36;99765.59;;;13.57;92.34
12360;BME280;6244;51.460;7.090;2023-04-22T19:46:33;99781.50;;;13.33;91.72
12360;BME280;6244;51.460;7.090;2023-04-22T19:51:31;99796.63;;;13.18;91.22
12360;BME280;6244;51.460;7.090;2023-04-22T19:56:28;99792.09;;;12.61;90.51
12360;BME280;6244;51.460;7.090;2023-04-22T20:01:26;99789.81;;;12.32;91.37
12360;BME280;6244;51.460;7.090;2023-04-22T20:06:23;99788.00;;;11.96;91.17
12360;BME280;6244;51.460;7.090;2023-04-22T20:11:20;99795.44;;;11.77;91.51
12360;BME280;6244;51.460;7.090;2023-04-22T20:16:17;99798.41;;;11.72;92.60
12360;BME280;6244;51.460;7.090;2023-04-22T20:21:17;99791.00;;;11.79;93.03
12360;BME280;6244;51.460;7.090;2023-04-22T20:26:17;99805.00;;;11.78;92.73
12360;BME280;6244;51.460;7.090;2023-04-22T20:31:14;99799.75;;;11.78;92.96
12360;BME280;6244;51.460;7.090;2023-04-22T20:36:13;99808.72;;;11.88;93.36
12360;BME280;6244;51.460;7.090;2023-04-22T20:41:12;99814.94;;;11.87;93.32
12360;BME280;6244;51.460;7.090;2023-04-22T20:46:08;99817.78;;;11.84;92.96
12360;BME280;6244;51.460;7.090;2023-04-22T20:51:05;99818.00;;;11.81;92.95
12360;BME280;6244;51.460;7.090;2023-04-22T20:56:03;99823.38;;;11.80;92.92
12360;BME280;6244;51.460;7.090;2023-04-22T21:01:02;99837.72;;;11.74;92.36
12360;BME280;6244;51.460;7.090;2023-04-22T21:06:00;99839.41;;;11.62;92.11
12360;BME280;6244;51.460;7.090;2023-04-22T21:10:58;99849.69;;;11.53;92.28
12360;BME280;6244;51.460;7.090;2023-04-22T21:15:58;99844.66;;;11.50;92.20
12360;BME280;6244;51.460;7.090;2023-04-22T21:20:57;99843.19;;;11.71;92.22
12360;BME280;6244;51.460;7.090;2023-04-22T21:25:59;99846.88;;;11.56;92.00
12360;BME280;6244;51.460;7.090;2023-04-22T21:30:56;99846.88;;;11.68;91.94
12360;BME280;6244;51.460;7.090;2023-04-22T21:35:53;99861.25;;;11.37;91.22
12360;BME280;6244;51.460;7.090;2023-04-22T21:40:51;99860.03;;;11.68;91.66
12360;BME280;6244;51.460;7.090;2023-04-22T21:45:47;99859.88;;;11.32;88.52
12360;BME280;6244;51.460;7.090;2023-04-22T21:50:44;99863.28;;;11.07;89.19
12360;BME280;6244;51.460;7.090;2023-04-22T21:55:40;99862.16;;;10.84;87.83
12360;BME280;6244;51.460;7.090;2023-04-22T22:00:38;99867.41;;;10.57;88.34
12360;BME280;6244;51.460;7.090;2023-04-22T22:05:34;99866.41;;;10.45;88.63
12360;BME280;6244;51.460;7.090;2023-04-22T22:10:32;99873.88;;;10.37;88.10
12360;BME280;6244;51.460;7.090;2023-04-22T22:15:28;99881.50;;;10.42;87.30
12360;BME280;6244;51.460;7.090;2023-04-22T22:20:26;99874.38;;;10.44;88.54
12360;BME280;6244;51.460;7.090;2023-04-22T22:25:24;99888.72;;;10.79;87.47
12360;BME280;6244;51.460;7.090;2023-04-22T22:30:20;99885.72;;;10.98;87.20
12360;BME280;6244;51.460;7.090;2023-04-22T22:35:17;99885.81;;;11.36;86.81
12360;BME280;6244;51.460;7.090;2023-04-22T22:40:15;99891.38;;;10.92;82.56
12360;BME280;6244;51.460;7.090;2023-04-22T22:45:11;99895.50;;;10.96;86.12
12360;BME280;6244;51.460;7.090;2023-04-22T22:50:08;99897.84;;;11.13;84.79
12360;BME280;6244;51.460;7.090;2023-04-22T22:55:06;99897.84;;;10.59;83.79
12360;BME280;6244;51.460;7.090;2023-04-22T23:00:05;99900.56;;;10.15;85.48
12360;BME280;6244;51.460;7.090;2023-04-22T23:05:04;99903.56;;;10.09;85.90
12360;BME280;6244;51.460;7.090;2023-04-22T23:10:01;99906.94;;;9.97;85.42
12360;BME280;6244;51.460;7.090;2023-04-22T23:14:58;99911.69;;;9.90;86.09
12360;BME280;6244;51.460;7.090;2023-04-22T23:19:56;99911.44;;;9.95;86.10
12360;BME280;6244;51.460;7.090;2023-04-22T23:24:55;99901.69;;;10.11;84.91
12360;BME280;6244;51.460;7.090;2023-04-22T23:29:52;99903.41;;;10.26;83.57
12360;BME280;6244;51.460;7.090;2023-04-22T23:34:52;99899.00;;;10.27;83.16
12360;BME280;6244;51.460;7.090;2023-04-22T23:39:49;99896.56;;;10.24;82.40
12360;BME280;6244;51.460;7.090;2023-04-22T23:44:46;99899.84;;;10.42;82.59
12360;BME280;6244;51.460;7.090;2023-04-22T23:49:42;99890.13;;;10.29;81.69
12360;BME280;6244;51.460;7.090;2023-04-22T23:54:39;99882.28;;;10.56;81.46
12360;BME280;6244;51.460;7.090;2023-04-22T23:59:40;99883.94;;;10.72;80.44
